Erie, Kansas
Current Conditions -  °F | °C
As of 9:52 PM on Thursday 18 Dec 2014 (Local Time) from KCNU Reporting Station
Haze Haze  
Wind Chill: 34°   Ceiling: 400
Heat Index: 34°   Visibility: 5mi
Dew Point: 33°   Wind: 3mph
Humidity: 96%   Direction: 20°NNE
Pressure: 30.24"   Gusts: NA
Location:  37.57°N, 95.24°W
Report Text: KCNU 190352Z AUTO 02003KT 5SM BR OVC004 01/01 A3024 RMK AO2 SLP249 T00110006
Loading
Personal Weather Stations






























Interactive Weather Map New forecast layout! Learn more

10-Day Weather Forecast

Advertisements
Track Severe Weather on mobile